Francisco Garrido

Olheiro-Chefe - Rayo Vallecano
22 Fev 2027
Segunda-feira
Processo

Personalidade

Adaptabilidade (4) Ambição (15) Controvérsia (5) Lealdade (10) Pressão (7) Profissionalismo (15) Espírito Esportivo (1) Temperamento (1)

Perfil

Estilo de Treinamento Democrático
Licença Nacional B
Determinação 7
Gestão de Pessoas 13
Motivação 9
Disciplina 8
Satisfação no Trabalho
50%
Fadiga
0%
Função Olheiro-Chefe
Salário 83.6K p/s
Contrato 14.03.2028

Desempenho

Comportamento Normal
Eficácia do Treinamento
16%
Desenvolvimento do Jogador
30%
Prevenção de Lesões
30%
Implementação Tática
35%

Eventos Recentes

Participou de uma reunião de recrutamento agora
Recomendou um alvo de transferência agora
Recomendou um alvo de transferência agora
Recomendou um alvo de transferência agora
Avaliou um jogador agora
Avaliou um jogador agora
Avaliou um jogador agora
Avaliou um jogador agora

Monitorando agora

128
Jogador Clube Status Habilidade Confiança Observado Última observação Último voto
Ozziel Herrera Tigres Ativo 134 / 123 40% 5 21.02.2027 -
Danylo Sikan Anderlecht Ativo 119 / 127 40% 2 21.02.2027 -
Luca Orellano Monterrey Ativo 154 / 129 40% 5 18.02.2027 -
Trai Hume Sunderland Ativo 146 / 137 40% 1 18.02.2027 -
Marquinhos Spartak Moscow Ativo 112 / 125 40% 3 17.02.2027 -
Enrico Delprato Parma Ativo 137 / 134 40% 1 17.02.2027 -
Andrés Gómez Vasco da Gama Ativo 143 / 138 40% 2 16.02.2027 -
Gabriel Sara Galatasaray Ativo 157 / 144 40% 1 16.02.2027 -
Tamble Monteiro Rio Ave Ativo 113 / 121 40% 1 16.02.2027 -
Alvyn Sanches Young Boys Ativo 126 / 134 40% 5 14.02.2027 -
Marcos Antonio Sport Recife Ativo 138 / 140 40% 4 14.02.2027 -
Nacer Tielemans Mouscron Ativo 125 / 133 40% 1 13.02.2027 -
Oleh Ocheretko Shakhtar Ativo 129 / 136 40% 6 12.02.2027 -
Francis Amuzu Grêmio Ativo 134 / 127 40% 3 11.02.2027 -
Martinelli Fluminense Ativo 153 / 137 40% 6 09.02.2027 -
Jaydee Canvot Crystal Palace Ativo 141 / 135 40% 1 09.02.2027 -
Juan Pablo De la Reta Maipú Ativo 123 / 114 40% 1 09.02.2027 -
Richard Koné Queens Park Rangers Ativo 127 / 126 40% 2 07.02.2027 -
Haissem Hassan Bloemfontein Celtic Ativo 120 / 125 40% 7 07.02.2027 -
Danilo Botafogo Ativo 137 / 139 40% 3 05.02.2027 -
Bart van Rooij Twente Ativo 137 / 139 40% 2 05.02.2027 -
Kein Sato FC Tokyo Ativo 120 / 139 40% 2 04.02.2027 -
Ansu Fati Monaco Ativo 134 / 137 40% 4 31.01.2027 -
Ramiro Ruiz Rodríguez Atlético Tucumán Ativo 131 / 117 40% 3 31.01.2027 -
Thierry Rendall Correia Venezia Ativo 154 / 139 40% 4 31.01.2027 -
Ousmane Camara Castellón Ativo 121 / 124 40% 5 29.01.2027 -
Vitinho Botafogo Ativo 127 / 132 40% 1 27.01.2027 -
Helinho Toluca Ativo 112 / 123 40% 1 26.01.2027 -
Pedro Henrique Shakhtar Ativo 122 / 135 40% 2 25.01.2027 -
Jonathan Rowe Bologna Ativo 124 / 132 40% 4 24.01.2027 -
Maxence Caqueret Como Ativo 149 / 131 40% 2 24.01.2027 -
Sambou Soumano FC Lorient Ativo 138 / 120 40% 1 23.01.2027 -
Jackson Muleka Konyaspor Ativo 127 / 134 40% 2 22.01.2027 -
Hugo Rincón Athletic Bilbao Ativo 124 / 132 40% 1 16.01.2027 -
Marcus Holmgren Pedersen Olympiacos Ativo 143 / 138 40% 2 15.01.2027 -
Marcos Paulo Juventude Ativo 127 / 122 40% 1 15.01.2027 -
Alan Velasco Boca Juniors Rejeitado 127 / 128 67% 7 13.01.2027 Rejeitar
Iván Martín Racing Club Ativo 158 / 141 40% 2 12.01.2027 -
Juanmi Latasa Valladolid Ativo 111 / 126 40% 1 12.01.2027 -
Jonas Wind Braga Ativo 138 / 139 40% 1 06.01.2027 -
Lorenzo Couture Penarol Ativo 84 / 101 40% 1 03.01.2027 -
Sergio Carreira Celta Ativo 124 / 130 40% 2 02.01.2027 -
José Paradela Cruz Azul Ativo 137 / 137 66% 1 01.01.2027 Aprovar
Mao Hosoya Corinthians Ativo 134 / 135 67% 1 01.01.2027 Aprovar
Stanislav Agkatsev Krasnodar Ativo 132 / 133 66% 1 01.01.2027 Aprovar
Jean-Luc Morin Tours Perdido 138 / 140 64% 1 01.01.2027 Aprovar
Fiete Arp OB Perdido 137 / 135 40% 1 31.12.2026 -
Roberto de la Rosa Monterrey Ativo 131 / 124 40% 1 31.12.2026 -
Juan Manuel Boselli Krasnodar Ativo 128 / 119 40% 1 25.12.2026 -
Jefry Zapata Once Caldas Ativo 122 / 122 40% 3 23.12.2026 -
Brayan León Mamelodi Sundowns Ativo 107 / 114 40% 1 23.12.2026 -
Brayan Gil Baltika Ativo 110 / 119 40% 3 22.12.2026 -
Peter Itodo Metalist Perdido 120 / 108 40% 1 22.12.2026 -
Duk Atlas Ativo 110 / 109 40% 5 21.12.2026 -
Allahyar Sayyadmanesh Lech Perdido 121 / 131 40% 2 21.12.2026 -
Óscar Aranda Espanyol Ativo 113 / 127 40% 3 19.12.2026 -
Vinícius Lopes Santa Clara Ativo 112 / 123 40% 3 18.12.2026 -
Cesar Corona Veracruz Ativo 126 / 135 40% 2 18.12.2026 -
Matías Giménez Rojas Argentinos Juniors Ativo 117 / 124 40% 2 17.12.2026 -
Gonzalo Plata Dinamo Moscow Ativo 153 / 140 40% 2 14.12.2026 -
Yoshan Valois Lanús Perdido 120 / 123 40% 2 11.12.2026 -
Yorbe Vertessen Red Bull Salzburg Ativo 143 / 124 40% 1 10.12.2026 -
Gianluca Busio Venezia Ativo 133 / 134 40% 1 09.12.2026 -
Alexander Díaz Deportivo Riestra Ativo 111 / 117 40% 4 04.12.2026 -
Jens Petter Hauge Bodo/Glimt Ativo 140 / 131 40% 2 04.12.2026 -
Marlon Gomes Shakhtar Ativo 113 / 129 40% 1 04.12.2026 -
García Pascual Cádiz Ativo 115 / 121 40% 3 29.11.2026 -
Florián Monzón Atlas Perdido 144 / 132 40% 3 28.11.2026 -
Emanuele Valeri Parma Ativo 140 / 129 40% 1 27.11.2026 -
Facundo Pellistri Panathinaikos Ativo 112 / 139 40% 1 27.11.2026 -
Tamerlan Musaev CSKA Moscow Ativo 118 / 127 40% 1 27.11.2026 -
Bojan Radulović Huddersfield Town Ativo 111 / 114 40% 1 26.11.2026 -
Josh Coburn Millwall Ativo 119 / 125 40% 1 24.11.2026 -
Franco Fagúndez Estudiantes Ativo 113 / 110 40% 3 23.11.2026 -
Felipe Augusto Zenit Ativo 154 / 144 40% 1 21.11.2026 -
Chupete Málaga Ativo 128 / 127 40% 2 20.11.2026 -
Lautaro Gordillo Colegiales Ativo 122 / 113 40% 1 18.11.2026 -
Efraín Álvarez Guadalajara Ativo 115 / 133 40% 1 18.11.2026 -
Ezequiel Almirón Estudiantes Ativo 106 / 116 40% 2 17.11.2026 -
Facundo Batista Penarol Ativo 131 / 113 40% 2 14.11.2026 -
Tyreece Campbell Charlton Athletic Ativo 118 / 116 40% 1 14.11.2026 -
Odin Bjørtuft Bodo/Glimt Ativo 135 / 130 40% 1 13.11.2026 -
Tadeo Allende Inter Miami CF Ativo 136 / 122 40% 2 10.11.2026 -
Santi García Gil Vicente Ativo 126 / 133 40% 1 10.11.2026 -
Jalen Blesa Rio Ave Ativo 134 / 123 40% 1 07.11.2026 -
Renzo Reynaga Patronato Ativo 117 / 107 40% 1 06.11.2026 -
Hugo Duro Valencia Ativo 147 / 137 40% 1 01.11.2026 -
Ignacio Russo Tigre Ativo 114 / 128 40% 2 29.10.2026 -
Marcos Machado Mitre Ativo 110 / 107 40% 2 29.10.2026 -
Luciano Gondou CSKA Moscow Ativo 139 / 126 40% 1 28.10.2026 -
Richard Ledezma Guadalajara Ativo 117 / 126 40% 1 27.10.2026 -
Manfred Ugalde Spartak Moscow Ativo 143 / 122 40% 1 24.10.2026 -
Thiago Calone All Boys Ativo 125 / 108 40% 1 23.10.2026 -
Valentín Quevedo Colegiales Ativo 95 / 108 40% 1 23.10.2026 -
Agustín Gallo Tristán Suárez Ativo 122 / 113 40% 1 22.10.2026 -
Christian Krasnodar Ativo 115 / 142 40% 1 20.10.2026 -
Sébastien Durand Tours Ativo 147 / 133 40% 1 20.10.2026 -
Erik Lira Cruz Azul Ativo 120 / 131 40% 2 16.10.2026 -
Juan David Rueda Alianza Petrolera Ativo 99 / 111 40% 1 16.10.2026 -
Favio Cabral Mitre Ativo 122 / 118 40% 1 14.10.2026 -
Enzo Avaro Mitre Ativo 109 / 110 40% 1 13.10.2026 -
Michy Fellaini KV Oostende Ativo 129 / 139 40% 1 09.10.2026 -
Yanis Begraoui Estoril Praia Ativo 124 / 139 40% 1 07.10.2026 -
Tomás Chancalay Minnesota United FC Ativo 149 / 122 40% 1 05.10.2026 -
Elías Báez Atlanta United FC Ativo 130 / 126 40% 1 18.09.2026 -
Eliás Montiel Pachuca Ativo 115 / 138 40% 1 18.09.2026 -
Sergio Quintero La Equidad Ativo 141 / 138 40% 2 15.09.2026 -
Lucas Agazzi Defensor Sporting Ativo 122 / 129 40% 1 15.09.2026 -
Pablo Aguiar Gimnasia La Plata Ativo 100 / 119 40% 3 14.09.2026 -
Ignacio Perruzzi San Lorenzo Ativo 117 / 126 40% 1 14.09.2026 -
Cemran Dansin Orlando Pirates Ativo 118 / 124 40% 1 13.09.2026 -
Alejo Gelsomino Gimnasia La Plata Ativo 91 / 107 40% 1 13.09.2026 -
Lucas Noubi Deportivo La Coruña Ativo 97 / 121 40% 1 12.09.2026 -
Facundo Montiel Colegiales Ativo 84 / 99 40% 2 10.09.2026 -
Juan Fernándes Pinto Almagro Ativo 97 / 109 40% 2 08.09.2026 -
Gonzalo Escudero Racing Club Ativo 105 / 115 40% 1 08.09.2026 -
Mbekezeli Mbokazi Chicago Fire Ativo 103 / 131 40% 1 03.09.2026 -
Xavi Grande Levante Ativo 103 / 111 40% 1 31.08.2026 -
Milan Roganović Partizan Ativo 105 / 116 40% 1 31.08.2026 -
Lautaro Vargas Villarreal Ativo 131 / 122 40% 1 24.08.2026 -
Joaquin Seys Club Brugge Ativo 137 / 122 40% 1 24.08.2026 -
Nahuel Herrera Penarol Ativo 112 / 128 40% 1 19.08.2026 -
Alexis Fretes Libertad Ativo 107 / 118 40% 2 06.08.2026 -
Teo Rodríguez Pagano San Lorenzo Ativo 117 / 121 40% 1 06.08.2026 -
Iza Cádiz Ativo 122 / 116 44% 1 03.08.2026 -
Lucas Lavagnino Valladolid Ativo 125 / 121 40% 1 02.08.2026 -
Ian Garguez Palestino Ativo 96 / 117 40% 1 01.08.2026 -
Juan Manuel Villalba Tigre Ativo 122 / 121 40% 1 01.08.2026 -